Ruleville, Mississippi
Current Conditions -  °F | °C
As of 1:15 PM on Sunday 21 Dec 2014 (Local Time) from KRNV Reporting Station
Clear Clear  
Wind Chill: 57°   Ceiling: Unl
Heat Index: 57°   Visibility: 10mi
Dew Point: 36°   Wind: 6mph
Humidity: 47%   Direction: 90°E
Pressure: 30.06"   Gusts: NA
Location:  33.73°N, 90.55°W
Report Text: KRNV 211915Z AUTO 09005KT 10SM CLR 14/02 A3006 RMK AO2 T01370024
Loading
Personal Weather Stations






























Interactive Weather Map New forecast layout! Learn more

10-Day Weather Forecast

Advertisements
Track Severe Weather on mobile